createdAt,value
2018-01-27T00:01:47.638Z,2.20
2018-01-27T00:04:15.170Z,2.20
2018-01-27T00:06:43.183Z,2.30
2018-01-27T00:09:10.632Z,2.20
2018-01-27T00:11:38.132Z,2.20
2018-01-27T00:14:05.591Z,2.20
2018-01-27T00:16:33.029Z,2.30
2018-01-27T00:19:00.487Z,2.40
2018-01-27T00:21:27.955Z,2.20
2018-01-27T00:23:55.791Z,2.20
2018-01-27T00:26:23.299Z,2.20
2018-01-27T00:28:50.744Z,2.30
2018-01-27T00:31:18.239Z,2.40
2018-01-27T00:33:45.706Z,2.40
2018-01-27T00:36:13.185Z,2.40
2018-01-27T00:38:40.637Z,2.40
2018-01-27T00:41:08.110Z,2.40
2018-01-27T00:43:35.552Z,2.40
2018-01-27T00:46:03.012Z,2.60
2018-01-27T00:48:30.470Z,2.80
2018-01-27T00:50:57.925Z,2.90
2018-01-27T00:53:25.395Z,2.80
2018-01-27T00:55:52.849Z,2.80
2018-01-27T00:58:20.289Z,2.80
2018-01-27T01:00:47.742Z,2.80
2018-01-27T01:03:15.203Z,2.90
2018-01-27T01:05:42.658Z,2.90
2018-01-27T01:08:10.106Z,2.80
2018-01-27T01:10:37.552Z,2.90
2018-01-27T01:13:05.031Z,2.90
2018-01-27T01:15:32.477Z,3.00
2018-01-27T01:17:59.942Z,3.00
2018-01-27T01:20:27.402Z,2.60
2018-01-27T01:22:54.865Z,3.40
2018-01-27T01:25:23.111Z,3.10
2018-01-27T01:27:50.563Z,3.00
2018-01-27T01:30:18.815Z,3.10
2018-01-27T01:32:46.261Z,3.10
2018-01-27T01:35:13.712Z,3.10
2018-01-27T01:37:41.182Z,3.10
2018-01-27T01:40:08.648Z,3.10
2018-01-27T01:45:42.216Z,3.20
2018-01-27T01:48:09.712Z,3.20
2018-01-27T01:50:37.174Z,3.20
2018-01-27T01:53:04.643Z,3.20
2018-01-27T01:55:32.856Z,3.20
2018-01-27T01:58:00.318Z,3.10
2018-01-27T02:00:27.795Z,3.10
2018-01-27T02:02:55.250Z,3.10
2018-01-27T02:05:22.721Z,3.10
2018-01-27T02:07:50.949Z,3.10
2018-01-27T02:10:18.408Z,3.10
2018-01-27T02:12:45.873Z,3.30
2018-01-27T02:15:13.332Z,3.30
2018-01-27T02:17:40.809Z,3.30
2018-01-27T02:20:08.260Z,3.30
2018-01-27T02:22:35.713Z,3.30
2018-01-27T02:25:03.174Z,3.30
2018-01-27T02:27:31.399Z,3.30
2018-01-27T02:29:59.618Z,3.30
2018-01-27T02:32:27.070Z,3.40
2018-01-27T02:34:54.534Z,3.30
2018-01-27T02:37:21.999Z,3.30
2018-01-27T02:39:49.444Z,3.60
2018-01-27T02:42:16.901Z,3.60
2018-01-27T02:44:44.377Z,3.50
2018-01-27T02:47:11.866Z,3.60
2018-01-27T02:49:40.108Z,3.40
2018-01-27T02:52:07.554Z,3.40
2018-01-27T02:54:35.338Z,3.40
2018-01-27T02:57:03.590Z,3.40
2018-01-27T02:59:31.037Z,3.30
2018-01-27T03:01:58.499Z,3.40
2018-01-27T03:04:25.952Z,3.30
2018-01-27T03:06:53.400Z,3.40
2018-01-27T03:09:20.871Z,3.40
2018-01-27T03:11:48.326Z,3.40
2018-01-27T03:14:15.786Z,3.40
2018-01-27T03:16:43.255Z,3.50
2018-01-27T03:19:10.711Z,3.50
2018-01-27T03:21:38.173Z,3.40
2018-01-27T03:24:05.638Z,3.40
2018-01-27T03:26:33.096Z,3.40
2018-01-27T03:29:00.545Z,3.40
2018-01-27T03:31:27.996Z,3.60
2018-01-27T03:33:55.440Z,3.50
2018-01-27T03:36:22.900Z,3.50
2018-01-27T03:38:50.377Z,3.60
2018-01-27T03:41:18.221Z,3.50
2018-01-27T03:43:46.076Z,3.50
2018-01-27T03:46:13.535Z,3.40
2018-01-27T03:48:40.999Z,3.50
2018-01-27T03:51:08.466Z,3.40
2018-01-27T03:53:35.925Z,3.50
2018-01-27T03:56:03.392Z,3.50
2018-01-27T03:58:30.846Z,3.50
2018-01-27T04:00:58.300Z,3.50
2018-01-27T04:03:25.756Z,3.50
2018-01-27T04:05:53.220Z,3.50
2018-01-27T04:08:20.683Z,3.50
2018-01-27T04:10:48.156Z,3.60
2018-01-27T04:13:16.377Z,3.70
2018-01-27T04:15:43.840Z,3.60
2018-01-27T04:18:11.289Z,3.70
2018-01-27T04:20:38.756Z,3.80
2018-01-27T04:23:06.207Z,3.90
2018-01-27T04:25:33.668Z,3.90
2018-01-27T04:28:01.138Z,3.90
2018-01-27T04:30:28.599Z,3.90
2018-01-27T04:32:56.051Z,3.90
2018-01-27T04:35:23.516Z,3.80
2018-01-27T04:37:50.979Z,3.40
2018-01-27T04:40:18.440Z,3.90
2018-01-27T04:42:46.300Z,3.90
2018-01-27T04:45:14.155Z,4.20
2018-01-27T04:47:41.604Z,4.00
2018-01-27T04:50:09.066Z,4.00
2018-01-27T04:52:36.527Z,4.00
2018-01-27T04:55:03.990Z,4.00
2018-01-27T04:57:31.441Z,3.90
2018-01-27T04:59:58.959Z,4.00
2018-01-27T05:02:26.477Z,3.90
2018-01-27T05:04:54.699Z,3.90
2018-01-27T05:07:22.156Z,3.80
2018-01-27T05:09:49.618Z,4.00
2018-01-27T05:12:17.097Z,4.00
2018-01-27T05:14:44.562Z,4.00
2018-01-27T05:17:12.012Z,4.00
2018-01-27T05:19:39.460Z,4.00
2018-01-27T05:22:06.911Z,4.00
2018-01-27T05:24:34.374Z,4.00
2018-01-27T05:27:01.832Z,3.80
2018-01-27T05:29:29.297Z,3.80
2018-01-27T05:31:56.760Z,3.80
2018-01-27T05:34:24.222Z,4.60
2018-01-27T05:36:51.689Z,3.90
2018-01-27T05:39:19.134Z,4.00
2018-01-27T05:41:46.994Z,4.10
2018-01-27T05:44:14.458Z,4.10
2018-01-27T05:46:42.300Z,4.20
2018-01-27T05:49:09.766Z,4.10
2018-01-27T05:51:37.231Z,4.20
2018-01-27T05:54:04.671Z,4.20
2018-01-27T05:56:32.137Z,4.20
2018-01-27T05:58:59.585Z,4.20
2018-01-27T06:01:27.039Z,4.30
2018-01-27T06:03:54.487Z,4.30
2018-01-27T06:06:21.965Z,4.10
2018-01-27T06:08:49.434Z,4.20
2018-01-27T06:11:16.883Z,4.10
2018-01-27T06:13:44.341Z,4.00
2018-01-27T06:16:11.806Z,4.00
2018-01-27T06:18:39.272Z,4.00
2018-01-27T06:21:07.497Z,4.00
2018-01-27T06:23:34.940Z,4.00
2018-01-27T06:26:02.399Z,4.00
2018-01-27T06:28:29.865Z,3.90
2018-01-27T06:30:57.324Z,3.90
2018-01-27T06:33:24.773Z,3.80
2018-01-27T06:35:52.223Z,3.70
2018-01-27T06:38:19.686Z,3.80
2018-01-27T06:40:47.134Z,3.60
2018-01-27T06:43:14.592Z,3.80
2018-01-27T06:45:42.064Z,3.70
2018-01-27T06:48:09.522Z,3.70
2018-01-27T06:50:36.973Z,3.80
2018-01-27T06:53:04.440Z,3.90
2018-01-27T06:55:31.908Z,3.90
2018-01-27T06:57:59.367Z,3.90
2018-01-27T07:00:26.817Z,4.00
2018-01-27T07:02:54.268Z,4.00
2018-01-27T07:05:21.722Z,4.00
2018-01-27T07:07:49.183Z,4.10
2018-01-27T07:10:16.625Z,4.10
2018-01-27T07:12:44.082Z,4.00
2018-01-27T07:15:11.541Z,4.10
2018-01-27T07:17:38.992Z,4.10
2018-01-27T07:20:06.459Z,4.10
2018-01-27T07:22:33.917Z,4.00
2018-01-27T07:25:01.375Z,4.10
2018-01-27T07:27:28.829Z,4.10
2018-01-27T07:29:56.277Z,4.10
2018-01-27T07:32:23.746Z,4.20
2018-01-27T07:34:51.204Z,4.00
2018-01-27T07:37:18.663Z,4.40
2018-01-27T07:39:46.117Z,4.30
2018-01-27T07:42:13.582Z,4.20
2018-01-27T07:44:41.804Z,4.30
2018-01-27T07:47:09.646Z,4.40
2018-01-27T07:49:37.104Z,4.40
2018-01-27T07:52:05.320Z,4.30
2018-01-27T07:54:32.798Z,4.30
2018-01-27T07:57:00.270Z,4.40
2018-01-27T07:59:27.720Z,4.40
2018-01-27T08:01:55.190Z,4.50
2018-01-27T08:04:22.658Z,4.50
2018-01-27T08:06:50.112Z,4.50
2018-01-27T08:09:17.569Z,4.50
2018-01-27T08:11:45.025Z,4.50
2018-01-27T08:14:12.478Z,4.60
2018-01-27T08:16:39.924Z,4.60
2018-01-27T08:19:07.394Z,4.70
2018-01-27T08:21:34.866Z,4.70
2018-01-27T08:24:03.095Z,4.80
2018-01-27T08:26:30.558Z,4.80
2018-01-27T08:28:58.028Z,4.80
2018-01-27T08:31:25.499Z,4.90
2018-01-27T08:33:52.958Z,4.90
2018-01-27T08:36:20.407Z,4.00
2018-01-27T08:38:47.888Z,5.50
2018-01-27T08:41:16.122Z,4.80
2018-01-27T08:43:43.588Z,4.90
2018-01-27T08:46:11.055Z,6.00
2018-01-27T08:48:40.023Z,4.90
2018-01-27T08:51:07.485Z,4.90
2018-01-27T08:53:34.953Z,4.90
2018-01-27T08:56:02.422Z,5.00
2018-01-27T08:58:29.886Z,5.00
2018-01-27T09:00:58.116Z,5.00
2018-01-27T09:03:25.607Z,5.00
2018-01-27T09:05:53.081Z,5.10
2018-01-27T09:08:21.305Z,5.20
2018-01-27T09:10:48.775Z,5.20
2018-01-27T09:13:16.245Z,5.20
2018-01-27T09:15:43.721Z,5.30
2018-01-27T09:18:11.961Z,5.30
2018-01-27T09:20:39.421Z,5.30
2018-01-27T09:23:06.894Z,5.30
2018-01-27T09:25:34.349Z,5.20
2018-01-27T09:28:01.811Z,5.30
2018-01-27T09:30:29.272Z,5.40
2018-01-27T09:32:57.510Z,5.50
2018-01-27T09:35:25.026Z,5.40
2018-01-27T09:37:52.494Z,5.50
2018-01-27T09:40:23.645Z,5.60
2018-01-27T09:42:51.138Z,5.60
2018-01-27T09:45:18.597Z,5.70
2018-01-27T09:47:46.115Z,5.50
2018-01-27T09:50:13.940Z,5.70
2018-01-27T09:52:43.319Z,5.80
2018-01-27T09:55:10.772Z,5.80
2018-01-27T09:57:38.232Z,5.90
2018-01-27T10:00:05.697Z,5.80
2018-01-27T10:02:33.179Z,5.90
2018-01-27T10:05:01.411Z,6.00
2018-01-27T10:07:28.869Z,6.00
2018-01-27T10:09:56.317Z,6.20
2018-01-27T10:12:23.776Z,6.20
2018-01-27T10:14:51.251Z,6.30
2018-01-27T10:17:18.712Z,6.30
2018-01-27T10:19:46.931Z,6.30
2018-01-27T10:22:14.406Z,6.30
2018-01-27T10:24:41.864Z,6.40
2018-01-27T10:27:09.332Z,6.40
2018-01-27T10:29:36.792Z,6.30
2018-01-27T10:32:04.286Z,6.30
2018-01-27T10:34:31.742Z,6.30
2018-01-27T10:36:59.210Z,6.40
2018-01-27T10:39:26.666Z,6.30
2018-01-27T10:41:54.127Z,6.20
2018-01-27T10:44:22.352Z,6.30
2018-01-27T10:46:53.582Z,6.10
2018-01-27T10:49:21.063Z,6.30
2018-01-27T10:51:48.536Z,6.40
2018-01-27T10:54:16.385Z,6.40
2018-01-27T10:56:43.891Z,6.30
2018-01-27T10:59:11.382Z,6.50
2018-01-27T11:01:38.849Z,6.60
2018-01-27T11:04:06.316Z,6.70
2018-01-27T11:06:33.928Z,6.80
2018-01-27T11:09:02.154Z,6.70
2018-01-27T11:11:29.620Z,6.70
2018-01-27T11:13:57.297Z,6.90
2018-01-27T11:16:39.652Z,7.50
2018-01-27T11:19:07.138Z,7.60
2018-01-27T11:21:35.364Z,8.20
2018-01-27T11:24:02.822Z,8.20
2018-01-27T11:26:30.279Z,8.50
2018-01-27T11:28:57.731Z,8.80
2018-01-27T11:31:25.204Z,9.10
2018-01-27T11:33:52.659Z,9.20
2018-01-27T11:36:20.105Z,9.40
2018-01-27T11:38:47.585Z,9.60
2018-01-27T11:41:15.048Z,9.60
2018-01-27T11:43:42.495Z,9.60
2018-01-27T11:46:10.725Z,9.80
2018-01-27T11:48:38.944Z,9.80
2018-01-27T11:51:06.397Z,9.80
2018-01-27T11:53:33.863Z,9.70
2018-01-27T11:56:01.340Z,9.90
2018-01-27T11:58:28.800Z,9.90
2018-01-27T12:00:56.660Z,10.10
2018-01-27T12:03:24.130Z,9.80
2018-01-27T12:05:51.610Z,10.20
2018-01-27T12:08:19.828Z,10.30
2018-01-27T12:10:47.345Z,10.20
2018-01-27T12:13:14.779Z,10.30
2018-01-27T12:15:42.253Z,10.30
2018-01-27T12:18:09.713Z,10.30
2018-01-27T12:20:37.178Z,10.30
2018-01-27T12:23:05.634Z,10.40
2018-01-27T12:25:33.160Z,10.30
2018-01-27T12:28:00.616Z,10.30
2018-01-27T12:30:28.153Z,10.30
2018-01-27T12:32:55.630Z,10.30
2018-01-27T12:35:23.099Z,10.30
2018-01-27T12:37:51.362Z,10.30
2018-01-27T12:40:18.829Z,10.30
2018-01-27T12:42:46.569Z,10.30
2018-01-27T12:45:14.034Z,10.20
2018-01-27T12:47:41.498Z,10.30
2018-01-27T12:50:08.966Z,10.20
2018-01-27T12:52:36.420Z,10.20
2018-01-27T12:55:03.940Z,10.60
2018-01-27T12:57:31.420Z,10.30
2018-01-27T12:59:59.274Z,10.30
2018-01-27T13:02:26.750Z,10.40
2018-01-27T13:04:54.235Z,10.40
2018-01-27T13:07:21.695Z,10.40
2018-01-27T13:09:49.165Z,10.40
2018-01-27T13:12:16.620Z,10.40
2018-01-27T13:14:44.080Z,10.30
2018-01-27T13:17:11.533Z,10.30
2018-01-27T13:19:39.783Z,10.40
2018-01-27T13:22:07.285Z,10.40
2018-01-27T13:24:35.562Z,10.50
2018-01-27T13:27:03.785Z,10.60
2018-01-27T13:29:31.283Z,10.50
2018-01-27T13:31:58.725Z,10.40
2018-01-27T13:34:26.172Z,10.40
2018-01-27T13:36:53.627Z,10.40
2018-01-27T13:39:21.088Z,10.30
2018-01-27T13:41:48.532Z,10.10
2018-01-27T13:44:15.996Z,10.10
2018-01-27T13:46:43.482Z,10.00
2018-01-27T13:49:11.710Z,10.10
2018-01-27T13:51:39.157Z,9.90
2018-01-27T13:54:06.608Z,9.90
2018-01-27T13:56:34.078Z,9.70
2018-01-27T13:59:02.334Z,9.80
2018-01-27T14:01:29.777Z,9.70
2018-01-27T14:03:57.621Z,9.70
2018-01-27T14:06:25.847Z,9.80
2018-01-27T14:08:53.298Z,9.80
2018-01-27T14:11:20.765Z,9.80
2018-01-27T14:13:48.222Z,9.90
2018-01-27T14:16:15.713Z,9.90
2018-01-27T14:18:43.144Z,9.90
2018-01-27T14:21:10.592Z,9.90
2018-01-27T14:23:38.039Z,10.00
2018-01-27T14:26:05.507Z,10.00
2018-01-27T14:28:32.966Z,10.00
2018-01-27T14:31:00.492Z,10.00
2018-01-27T14:33:27.937Z,10.10
2018-01-27T14:35:55.404Z,10.10
2018-01-27T14:38:22.870Z,10.20
2018-01-27T14:40:50.343Z,10.30
2018-01-27T14:43:17.910Z,10.30
2018-01-27T14:45:45.403Z,10.40
2018-01-27T14:48:12.867Z,10.60
2018-01-27T14:50:41.087Z,10.80
2018-01-27T14:53:08.572Z,10.70
2018-01-27T14:55:36.052Z,10.50
2018-01-27T14:58:04.279Z,10.50
2018-01-27T15:00:37.673Z,10.50
2018-01-27T15:03:05.532Z,10.10
2018-01-27T15:05:33.003Z,10.20
2018-01-27T15:08:00.464Z,10.20
2018-01-27T15:10:27.954Z,10.20
2018-01-27T15:12:56.190Z,10.20
2018-01-27T15:15:23.694Z,10.20
2018-01-27T15:17:51.612Z,10.20
2018-01-27T15:20:19.134Z,10.10
2018-01-27T15:22:46.527Z,10.10
2018-01-27T15:25:13.996Z,10.10
2018-01-27T15:27:41.470Z,10.10
2018-01-27T15:30:08.953Z,10.00
2018-01-27T15:32:37.211Z,9.90
2018-01-27T15:35:04.722Z,9.90
2018-01-27T15:37:32.210Z,9.90
2018-01-27T15:39:59.723Z,9.90
2018-01-27T15:42:27.206Z,9.90
2018-01-27T15:44:54.645Z,9.90
2018-01-27T15:47:22.097Z,9.80
2018-01-27T15:49:49.594Z,9.30
2018-01-27T15:52:17.053Z,9.70
2018-01-27T15:54:44.892Z,9.70
2018-01-27T15:57:13.145Z,9.60
2018-01-27T15:59:40.650Z,9.70
2018-01-27T16:02:08.977Z,9.60
2018-01-27T16:04:36.442Z,9.60
2018-01-27T16:07:03.891Z,9.60
2018-01-27T16:09:31.415Z,9.50
2018-01-27T16:11:58.927Z,9.40
2018-01-27T16:14:26.364Z,9.40
2018-01-27T16:16:53.859Z,9.40
2018-01-27T16:19:21.322Z,9.40
2018-01-27T16:21:48.769Z,9.40
2018-01-27T16:24:16.219Z,9.40
2018-01-27T16:26:43.682Z,9.30
2018-01-27T16:29:11.194Z,9.30
2018-01-27T16:31:38.646Z,9.30
2018-01-27T16:34:06.151Z,9.30
2018-01-27T16:36:33.605Z,9.30
2018-01-27T16:39:01.110Z,9.30
2018-01-27T16:41:29.329Z,9.30
2018-01-27T16:43:56.836Z,9.30
2018-01-27T16:46:24.289Z,9.20
2018-01-27T16:48:51.778Z,9.20
2018-01-27T16:51:19.277Z,9.30
2018-01-27T16:53:46.728Z,9.20
2018-01-27T16:56:14.200Z,9.30
2018-01-27T16:58:41.663Z,9.30
2018-01-27T17:01:09.131Z,9.20
2018-01-27T17:03:36.599Z,9.20
2018-01-27T17:06:04.884Z,9.20
2018-01-27T17:08:33.130Z,9.20
2018-01-27T17:11:00.621Z,9.10
2018-01-27T17:13:28.897Z,9.10
2018-01-27T17:15:56.346Z,9.10
2018-01-27T17:18:24.693Z,9.10
2018-01-27T17:20:52.183Z,9.10
2018-01-27T17:23:20.408Z,8.90
2018-01-27T17:25:47.916Z,10.20
2018-01-27T17:28:16.172Z,8.80
2018-01-27T17:30:43.664Z,8.80
2018-01-27T17:33:11.876Z,8.80
2018-01-27T17:35:39.357Z,8.70
2018-01-27T17:38:06.885Z,8.90
2018-01-27T17:40:34.377Z,8.80
2018-01-27T17:43:01.831Z,8.80
2018-01-27T17:45:29.289Z,8.70
2018-01-27T17:47:56.732Z,8.60
2018-01-27T17:50:24.188Z,8.40
2018-01-27T17:52:51.717Z,8.40
2018-01-27T17:55:19.206Z,8.30
2018-01-27T17:57:46.719Z,8.30
2018-01-27T18:00:14.162Z,8.30
2018-01-27T18:02:41.610Z,8.30
2018-01-27T18:05:09.059Z,8.30
2018-01-27T18:07:37.339Z,8.30
2018-01-27T18:10:05.652Z,8.40
2018-01-27T18:12:33.071Z,8.30
2018-01-27T18:15:01.339Z,8.20
2018-01-27T18:17:28.775Z,8.20
2018-01-27T18:19:56.302Z,8.30
2018-01-27T18:22:23.767Z,8.30
2018-01-27T18:24:51.321Z,8.30
2018-01-27T18:27:18.739Z,8.20
2018-01-27T18:29:46.242Z,8.20
2018-01-27T18:32:13.746Z,8.20
2018-01-27T18:34:41.964Z,8.10
2018-01-27T18:37:10.249Z,8.20
2018-01-27T18:39:37.742Z,8.10
2018-01-27T18:42:06.013Z,8.10
2018-01-27T18:44:33.464Z,8.10
2018-01-27T18:47:00.967Z,8.10
2018-01-27T18:49:28.408Z,8.20
2018-01-27T18:51:55.871Z,8.10
2018-01-27T18:54:23.329Z,8.10
2018-01-27T18:56:50.794Z,8.80
2018-01-27T18:59:18.296Z,8.10
2018-01-27T19:01:45.799Z,8.10
2018-01-27T19:04:14.073Z,8.00
2018-01-27T19:06:41.575Z,8.00
2018-01-27T19:09:09.070Z,8.00
2018-01-27T19:11:36.564Z,8.00
2018-01-27T19:14:04.025Z,8.00
2018-01-27T19:16:31.519Z,8.20
2018-01-27T19:18:59.054Z,8.10
2018-01-27T19:21:26.506Z,8.10
2018-01-27T19:23:54.739Z,8.10
2018-01-27T19:26:22.226Z,8.10
2018-01-27T19:28:49.729Z,8.20
2018-01-27T19:31:17.232Z,8.30
2018-01-27T19:33:44.757Z,8.30
2018-01-27T19:36:12.166Z,8.20
2018-01-27T19:38:39.638Z,8.20
2018-01-27T19:41:07.145Z,8.20
2018-01-27T19:43:35.392Z,8.10
2018-01-27T19:46:02.900Z,8.10
2018-01-27T19:48:30.398Z,8.20
2018-01-27T19:50:57.902Z,8.20
2018-01-27T19:53:25.405Z,8.20
2018-01-27T19:55:53.676Z,8.20
2018-01-27T19:58:21.186Z,8.20
2018-01-27T20:00:48.705Z,8.30
2018-01-27T20:03:16.972Z,8.30
2018-01-27T20:05:44.419Z,8.30
2018-01-27T20:08:11.939Z,8.30
2018-01-27T20:10:39.401Z,8.30
2018-01-27T20:13:07.294Z,8.10
2018-01-27T20:15:35.197Z,8.20
2018-01-27T20:18:02.870Z,8.20
2018-01-27T20:20:31.097Z,8.20
2018-01-27T20:22:58.602Z,8.20
2018-01-27T20:25:26.051Z,8.40
2018-01-27T20:27:53.563Z,8.40
2018-01-27T20:30:21.031Z,8.50
2018-01-27T20:32:48.948Z,8.40
2018-01-27T20:35:17.175Z,8.30
2018-01-27T20:37:44.676Z,8.40
2018-01-27T20:40:12.179Z,8.40
2018-01-27T20:42:39.640Z,8.40
2018-01-27T20:45:07.154Z,8.30
2018-01-27T20:47:35.407Z,8.20
2018-01-27T20:50:02.916Z,8.20
2018-01-27T20:52:30.367Z,8.10
2018-01-27T20:54:57.882Z,8.00
2018-01-27T20:57:25.396Z,7.90
2018-01-27T20:59:52.899Z,7.90
2018-01-27T21:02:20.409Z,7.80
2018-01-27T21:04:47.876Z,7.70
2018-01-27T21:07:15.344Z,7.70
2018-01-27T21:09:42.858Z,7.60
2018-01-27T21:12:10.754Z,7.60
2018-01-27T21:14:38.230Z,7.60
2018-01-27T21:17:05.725Z,7.60
2018-01-27T21:19:33.992Z,7.50
2018-01-27T21:22:01.488Z,7.50
2018-01-27T21:24:28.941Z,7.60
2018-01-27T21:26:56.451Z,7.70
2018-01-27T21:29:23.997Z,7.80
2018-01-27T21:31:51.445Z,7.70
2018-01-27T21:34:18.940Z,7.70
2018-01-27T21:36:46.439Z,7.70
2018-01-27T21:39:13.915Z,7.70
2018-01-27T21:41:41.408Z,7.60
2018-01-27T21:44:08.909Z,7.70
2018-01-27T21:46:36.400Z,7.70
2018-01-27T21:49:03.906Z,7.70
2018-01-27T21:51:31.414Z,7.70
2018-01-27T21:53:58.921Z,7.80
2018-01-27T21:56:26.429Z,7.70
2018-01-27T21:58:53.931Z,7.70
2018-01-27T22:01:22.195Z,7.80
2018-01-27T22:03:50.455Z,7.80
2018-01-27T22:06:17.977Z,7.70
2018-01-27T22:08:45.477Z,7.80
2018-01-27T22:11:12.966Z,7.80
2018-01-27T22:13:40.461Z,7.80
2018-01-27T22:16:07.954Z,7.70
2018-01-27T22:18:35.441Z,7.70
2018-01-27T22:21:03.296Z,7.60
2018-01-27T22:23:30.876Z,7.60
2018-01-27T22:25:58.374Z,7.60
2018-01-27T22:28:25.871Z,7.60
2018-01-27T22:30:54.134Z,7.70
2018-01-27T22:33:22.354Z,7.70
2018-01-27T22:35:49.854Z,7.70
2018-01-27T22:38:17.351Z,7.70
2018-01-27T22:40:44.906Z,7.70
2018-01-27T22:43:12.378Z,7.80
2018-01-27T22:45:39.882Z,7.70
2018-01-27T22:48:07.379Z,7.70
2018-01-27T22:50:34.893Z,7.80
2018-01-27T22:53:02.371Z,7.30
2018-01-27T22:55:30.224Z,7.60
2018-01-27T22:57:58.128Z,7.60
2018-01-27T23:00:25.619Z,7.60
2018-01-27T23:02:53.116Z,7.70
2018-01-27T23:05:21.373Z,7.70
2018-01-27T23:07:48.828Z,7.70
2018-01-27T23:10:16.326Z,7.60
2018-01-27T23:12:43.784Z,7.70
2018-01-27T23:15:11.310Z,7.70
2018-01-27T23:17:38.785Z,7.70
2018-01-27T23:20:07.007Z,7.70
2018-01-27T23:22:34.468Z,7.70
2018-01-27T23:25:01.998Z,7.70
2018-01-27T23:27:29.490Z,7.70
2018-01-27T23:29:56.947Z,7.80
2018-01-27T23:32:24.397Z,7.70
2018-01-27T23:34:51.859Z,7.60
2018-01-27T23:37:19.319Z,7.50
2018-01-27T23:39:46.824Z,7.50
2018-01-27T23:42:15.024Z,7.40
2018-01-27T23:44:42.541Z,7.40
2018-01-27T23:47:10.836Z,7.40
2018-01-27T23:49:38.298Z,7.30
2018-01-27T23:52:06.162Z,7.50
2018-01-27T23:54:33.663Z,7.40
2018-01-27T23:57:01.113Z,7.50
2018-01-27T23:59:28.575Z,7.50
